Time,TemperatureF,DewpointF,PressureIn,WindDirection,WindDirectionDegrees,WindSpeedMPH,WindSpeedGustMPH,Humidity,HourlyPrecipIn,Conditions,Clouds,dailyrainin,SoftwareType,DateUTC
2013-12-16 00:14:00,10.0,4.0,30.02,SW,235,6.0,9.0,76,0.00,,,0.00,weatherlink.com 1.10,2013-12-16 05:14:00,
2013-12-16 00:29:00,10.2,4.0,30.02,SW,221,5.0,9.0,77,0.00,,,0.00,weatherlink.com 1.10,2013-12-16 05:29:00,
2013-12-16 00:44:00,10.6,5.0,30.02,West,264,7.0,8.0,77,0.00,,,0.00,weatherlink.com 1.10,2013-12-16 05:44:00,
2013-12-16 00:59:00,10.9,5.0,30.02,WNW,283,5.0,11.0,76,0.00,,,0.00,weatherlink.com 1.10,2013-12-16 05:59:00,
2013-12-16 01:14:00,10.7,5.0,30.02,West,269,4.0,12.0,76,0.00,,,0.00,weatherlink.com 1.10,2013-12-16 06:14:00,
2013-12-16 01:29:00,10.9,4.0,30.03,WSW,238,3.0,10.0,75,0.00,,,0.00,weatherlink.com 1.10,2013-12-16 06:29:00,
2013-12-16 01:44:00,10.9,5.0,30.04,SW,223,3.0,8.0,76,0.00,,,0.00,weatherlink.com 1.10,2013-12-16 06:44:00,
2013-12-16 01:59:00,11.4,5.0,30.04,WSW,253,3.0,9.0,76,0.00,,,0.00,weatherlink.com 1.10,2013-12-16 06:59:00,
2013-12-16 02:14:00,11.6,5.0,30.04,West,259,4.0,12.0,75,0.00,,,0.00,weatherlink.com 1.10,2013-12-16 07:14:00,
2013-12-16 02:29:00,11.3,5.0,30.05,West,264,5.0,10.0,75,0.00,,,0.00,weatherlink.com 1.10,2013-12-16 07:29:00,
2013-12-16 02:44:00,10.6,4.0,30.05,West,281,1.0,10.0,75,0.00,,,0.00,weatherlink.com 1.10,2013-12-16 07:44:00,
2013-12-16 02:59:00,10.1,4.0,30.06,WNW,285,3.0,7.0,76,0.00,,,0.00,weatherlink.com 1.10,2013-12-16 07:59:00,
2013-12-16 03:15:00,9.9,4.0,30.07,NW,316,3.0,8.0,76,0.00,,,0.00,weatherlink.com 1.10,2013-12-16 08:15:00,
2013-12-16 03:30:00,10.0,4.0,30.08,NW,304,2.0,7.0,77,0.00,,,0.00,weatherlink.com 1.10,2013-12-16 08:30:00,
2013-12-16 03:45:00,10.0,4.0,30.08,WSW,238,3.0,8.0,77,0.00,,,0.00,weatherlink.com 1.10,2013-12-16 08:45:00,
2013-12-16 04:00:00,9.8,4.0,30.08,WNW,292,4.0,8.0,77,0.00,,,0.00,weatherlink.com 1.10,2013-12-16 09:00:00,
2013-12-16 04:15:00,10.2,5.0,30.09,West,262,4.0,9.0,79,0.00,,,0.00,weatherlink.com 1.10,2013-12-16 09:15:00,
2013-12-16 04:30:00,10.9,6.0,30.09,West,271,1.0,10.0,80,0.00,,,0.00,weatherlink.com 1.10,2013-12-16 09:30:00,
2013-12-16 04:45:00,11.3,6.0,30.10,NW,311,2.0,12.0,80,0.00,,,0.00,weatherlink.com 1.10,2013-12-16 09:45:00,
2013-12-16 05:00:00,10.8,6.0,30.10,NW,319,0.0,5.0,80,0.00,,,0.00,weatherlink.com 1.10,2013-12-16 10:00:00,
2013-12-16 05:15:00,10.0,5.0,30.09,WSW,255,0.0,3.0,81,0.00,,,0.00,weatherlink.com 1.10,2013-12-16 10:15:00,
2013-12-16 05:30:00,9.5,5.0,30.10,West,264,0.0,2.0,82,0.00,,,0.00,weatherlink.com 1.10,2013-12-16 10:30:00,
2013-12-16 05:45:00,8.7,5.0,30.10,West,259,0.0,2.0,83,0.00,,,0.00,weatherlink.com 1.10,2013-12-16 10:45:00,
2013-12-16 06:00:00,8.1,4.0,30.11,WSW,255,0.0,2.0,84,0.00,,,0.00,weatherlink.com 1.10,2013-12-16 11:00:00,
2013-12-16 06:15:00,7.1,3.0,30.11,West,259,0.0,0.0,84,0.00,,,0.00,weatherlink.com 1.10,2013-12-16 11:15:00,
2013-12-16 06:30:00,5.9,3.0,30.12,SW,222,0.0,1.0,86,0.00,,,0.00,weatherlink.com 1.10,2013-12-16 11:30:00,
2013-12-16 06:45:00,5.4,2.0,30.12,SW,229,0.0,1.0,87,0.00,,,0.00,weatherlink.com 1.10,2013-12-16 11:45:00,
2013-12-16 07:00:00,4.8,2.0,30.13,SW,235,0.0,1.0,87,0.00,,,0.00,weatherlink.com 1.10,2013-12-16 12:00:00,
2013-12-16 07:15:00,4.6,2.0,30.14,SSE,148,0.0,1.0,88,0.00,,,0.00,weatherlink.com 1.10,2013-12-16 12:15:00,
2013-12-16 07:30:00,4.2,1.0,30.14,SW,219,0.0,1.0,88,0.00,,,0.00,weatherlink.com 1.10,2013-12-16 12:30:00,
2013-12-16 07:45:00,3.3,1.0,30.14,SW,218,0.0,0.0,88,0.00,,,0.00,weatherlink.com 1.10,2013-12-16 12:45:00,
2013-12-16 08:00:00,2.4,0.0,30.14,SW,219,0.0,0.0,89,0.00,,,0.00,weatherlink.com 1.10,2013-12-16 13:00:00,
2013-12-16 08:15:00,1.7,-1.0,30.15,SW,218,0.0,0.0,89,0.00,,,0.00,weatherlink.com 1.10,2013-12-16 13:15:00,
2013-12-16 08:30:00,1.0,-2.0,30.16,SW,219,0.0,0.0,89,0.00,,,0.00,weatherlink.com 1.10,2013-12-16 13:30:00,
2013-12-16 08:45:00,2.5,1.0,30.17,SW,219,0.0,0.0,91,0.00,,,0.00,weatherlink.com 1.10,2013-12-16 13:45:00,
2013-12-16 09:01:00,3.7,2.0,30.17,SW,218,0.0,0.0,91,0.00,,,0.00,weatherlink.com 1.10,2013-12-16 14:01:00,
2013-12-16 09:16:00,5.9,4.0,30.17,SW,218,0.0,0.0,91,0.00,,,0.00,weatherlink.com 1.10,2013-12-16 14:16:00,
2013-12-16 09:31:00,8.9,7.0,30.18,SW,218,0.0,0.0,90,0.00,,,0.00,weatherlink.com 1.10,2013-12-16 14:31:00,
2013-12-16 09:46:00,8.8,6.0,30.19,NNW,330,3.0,3.0,87,0.00,,,0.00,weatherlink.com 1.10,2013-12-16 14:46:00,
2013-12-16 10:01:00,9.5,6.0,30.19,NNW,338,2.0,4.0,85,0.00,,,0.00,weatherlink.com 1.10,2013-12-16 15:01:00,
2013-12-16 10:16:00,10.5,7.0,30.19,NW,315,1.0,2.0,84,0.00,,,0.00,weatherlink.com 1.10,2013-12-16 15:16:00,
2013-12-16 10:31:00,11.3,7.0,30.20,WNW,300,1.0,3.0,82,0.00,,,0.00,weatherlink.com 1.10,2013-12-16 15:31:00,
2013-12-16 10:46:00,12.6,8.0,30.21,WNW,303,1.0,4.0,80,0.00,,,0.00,weatherlink.com 1.10,2013-12-16 15:46:00,
2013-12-16 11:01:00,13.5,8.0,30.21,WNW,301,0.0,4.0,77,0.00,,,0.00,weatherlink.com 1.10,2013-12-16 16:01:00,
2013-12-16 11:16:00,15.4,8.0,30.21,NW,309,0.0,2.0,73,0.00,,,0.00,weatherlink.com 1.10,2013-12-16 16:16:00,
2013-12-16 11:31:00,15.4,7.0,30.20,NNW,330,2.0,3.0,69,0.00,,,0.00,weatherlink.com 1.10,2013-12-16 16:31:00,
2013-12-16 11:46:00,16.1,7.0,30.19,East,91,3.0,3.0,68,0.00,,,0.00,weatherlink.com 1.10,2013-12-16 16:46:00,
2013-12-16 12:01:00,17.8,7.0,30.18,NNE,20,0.0,3.0,64,0.00,,,0.00,weatherlink.com 1.10,2013-12-16 17:01:00,
2013-12-16 12:17:00,18.1,7.0,30.16,East,86,1.0,3.0,63,0.00,,,0.00,weatherlink.com 1.10,2013-12-16 17:17:00,
2013-12-16 12:32:00,17.9,6.0,30.16,NE,36,1.0,4.0,60,0.00,,,0.00,weatherlink.com 1.10,2013-12-16 17:32:00,
2013-12-16 12:47:00,19.3,6.0,30.15,ESE,103,1.0,3.0,56,0.00,,,0.00,weatherlink.com 1.10,2013-12-16 17:47:00,
2013-12-16 13:02:00,20.4,7.0,30.14,SSE,157,1.0,2.0,56,0.00,,,0.00,weatherlink.com 1.10,2013-12-16 18:02:00,
2013-12-16 13:17:00,20.7,6.0,30.14,SW,219,2.0,4.0,52,0.00,,,0.00,weatherlink.com 1.10,2013-12-16 18:17:00,
2013-12-16 13:32:00,20.6,5.0,30.14,ESE,120,0.0,3.0,50,0.00,,,0.00,weatherlink.com 1.10,2013-12-16 18:32:00,
2013-12-16 13:47:00,21.6,5.0,30.14,East,91,1.0,2.0,49,0.00,,,0.00,weatherlink.com 1.10,2013-12-16 18:47:00,
2013-12-16 14:02:00,21.4,6.0,30.14,ESE,116,1.0,2.0,51,0.00,,,0.00,weatherlink.com 1.10,2013-12-16 19:02:00,
2013-12-16 14:17:00,21.0,5.0,30.14,WSW,243,5.0,5.0,50,0.00,,,0.00,weatherlink.com 1.10,2013-12-16 19:17:00,
2013-12-16 14:32:00,21.0,6.0,30.13,WSW,250,3.0,4.0,52,0.00,,,0.00,weatherlink.com 1.10,2013-12-16 19:32:00,
2013-12-16 14:47:00,21.4,6.0,30.13,SE,134,3.0,5.0,52,0.00,,,0.00,weatherlink.com 1.10,2013-12-16 19:47:00,
2013-12-16 15:02:00,22.4,6.0,30.13,ESE,119,0.0,1.0,50,0.00,,,0.00,weatherlink.com 1.10,2013-12-16 20:02:00,
2013-12-16 15:17:00,22.0,6.0,30.12,WSW,250,2.0,5.0,51,0.00,,,0.00,weatherlink.com 1.10,2013-12-16 20:17:00,
2013-12-16 15:32:00,22.0,5.0,30.12,SSE,153,1.0,4.0,49,0.00,,,0.00,weatherlink.com 1.10,2013-12-16 20:32:00,
2013-12-16 15:48:00,21.5,5.0,30.12,SW,214,3.0,4.0,50,0.00,,,0.00,weatherlink.com 1.10,2013-12-16 20:48:00,
2013-12-16 16:03:00,22.0,6.0,30.12,South,181,2.0,4.0,51,0.00,,,0.00,weatherlink.com 1.10,2013-12-16 21:03:00,
2013-12-16 16:18:00,22.5,7.0,30.12,SW,215,0.0,1.0,52,0.00,,,0.00,weatherlink.com 1.10,2013-12-16 21:18:00,
2013-12-16 16:33:00,22.3,7.0,30.12,South,173,0.0,1.0,52,0.00,,,0.00,weatherlink.com 1.10,2013-12-16 21:33:00,
2013-12-16 16:48:00,19.9,6.0,30.12,West,263,0.0,0.0,55,0.00,,,0.00,weatherlink.com 1.10,2013-12-16 21:48:00,
2013-12-16 17:03:00,17.0,5.0,30.12,West,263,0.0,0.0,60,0.00,,,0.00,weatherlink.com 1.10,2013-12-16 22:03:00,
2013-12-16 17:18:00,15.4,5.0,30.11,West,262,0.0,0.0,64,0.00,,,0.00,weatherlink.com 1.10,2013-12-16 22:18:00,
2013-12-16 17:33:00,14.2,5.0,30.11,NW,311,0.0,1.0,67,0.00,,,0.00,weatherlink.com 1.10,2013-12-16 22:33:00,
2013-12-16 17:48:00,13.0,5.0,30.11,NW,311,0.0,0.0,70,0.00,,,0.00,weatherlink.com 1.10,2013-12-16 22:48:00,
2013-12-16 18:03:00,12.2,5.0,30.11,NW,312,0.0,0.0,73,0.00,,,0.00,weatherlink.com 1.10,2013-12-16 23:03:00,
2013-12-16 18:18:00,12.1,5.0,30.11,NW,312,0.0,0.0,72,0.00,,,0.00,weatherlink.com 1.10,2013-12-16 23:18:00,
2013-12-16 18:33:00,10.1,3.0,30.11,NW,312,0.0,0.0,74,0.00,,,0.00,weatherlink.com 1.10,2013-12-16 23:33:00,
2013-12-16 18:48:00,8.8,3.0,30.11,West,271,0.0,0.0,76,0.00,,,0.00,weatherlink.com 1.10,2013-12-16 23:48:00,
2013-12-16 19:03:00,9.1,4.0,30.11,East,80,0.0,1.0,80,0.00,,,0.00,weatherlink.com 1.10,2013-12-17 00:03:00,
2013-12-16 19:18:00,11.7,5.0,30.10,ESE,118,0.0,1.0,74,0.00,,,0.00,weatherlink.com 1.10,2013-12-17 00:18:00,
2013-12-16 19:33:00,12.4,5.0,30.10,ESE,106,1.0,2.0,72,0.00,,,0.00,weatherlink.com 1.10,2013-12-17 00:33:00,
2013-12-16 19:49:00,12.3,5.0,30.10,SE,132,0.0,1.0,71,0.00,,,0.00,weatherlink.com 1.10,2013-12-17 00:49:00,
2013-12-16 20:04:00,12.1,5.0,30.10,ESE,106,0.0,1.0,72,0.00,,,0.00,weatherlink.com 1.10,2013-12-17 01:04:00,
2013-12-16 20:19:00,12.0,5.0,30.10,East,79,0.0,1.0,73,0.00,,,0.00,weatherlink.com 1.10,2013-12-17 01:19:00,
2013-12-16 20:34:00,12.0,5.0,30.10,ESE,116,0.0,2.0,74,0.00,,,0.00,weatherlink.com 1.10,2013-12-17 01:34:00,
2013-12-16 21:19:00,11.1,6.0,30.10,ESE,117,0.0,0.0,79,0.00,,,0.00,weatherlink.com 1.10,2013-12-17 02:19:00,
2013-12-16 21:34:00,10.2,5.0,30.09,ESE,117,0.0,0.0,80,0.00,,,0.00,weatherlink.com 1.10,2013-12-17 02:34:00,
2013-12-16 21:49:00,11.3,7.0,30.09,ESE,117,0.0,0.0,82,0.00,,,0.00,weatherlink.com 1.10,2013-12-17 02:49:00,
2013-12-16 22:04:00,12.5,8.0,30.09,East,94,0.0,0.0,82,0.00,,,0.00,weatherlink.com 1.10,2013-12-17 03:04:00,
2013-12-16 22:19:00,12.9,8.0,30.08,ENE,77,0.0,0.0,82,0.00,,,0.00,weatherlink.com 1.10,2013-12-17 03:19:00,
2013-12-16 22:34:00,13.4,9.0,30.07,East,98,1.0,1.0,81,0.00,,,0.00,weatherlink.com 1.10,2013-12-17 03:34:00,
2013-12-16 22:49:00,13.8,9.0,30.06,SE,126,0.0,1.0,81,0.00,,,0.00,weatherlink.com 1.10,2013-12-17 03:49:00,
2013-12-16 23:04:00,13.9,10.0,30.06,ESE,113,2.0,2.0,83,0.00,,,0.00,weatherlink.com 1.10,2013-12-17 04:04:00,
2013-12-16 23:19:00,14.0,10.0,30.05,East,80,0.0,1.0,85,0.00,,,0.00,weatherlink.com 1.10,2013-12-17 04:19:00,
2013-12-16 23:34:00,14.2,11.0,30.05,ENE,63,2.0,2.0,87,0.00,,,0.00,weatherlink.com 1.10,2013-12-17 04:34:00,
2013-12-16 23:49:00,14.4,12.0,30.04,SSE,153,0.0,3.0,88,0.00,,,0.00,weatherlink.com 1.10,2013-12-17 04:49:00,